Hastings Natural History Reservation, California Weather observations

Data are for 10 minute period ending at time listed.
 Day   Time   Solar   Ave.   Ave.  Ave.  Vector  Max.   Baro.   Total    
  of    of     Rad.   Air    Rel.  Wind   Wind   Wind  Press.  Precip.   
Year   Day            Temp.  Hum.  Speed  Dir.   Gust                    
2016   (PST)  Kw/m2    F      %     mph   deg.    mph    mb.     in.     
-------------------------------------------------------------------------
 126   14:20   0.23   56.6    90    2.0   238     4.1   947.6    0.00 
 126   14:30   0.15   56.4    90    2.5   237     4.4   947.6    0.00 
 126   14:40   0.17   56.4    89    2.3   234     4.7   947.5    0.02 
 126   14:50   0.17   56.7    89    1.8   236     3.4   947.5    0.01 
 126   15:00   0.10   56.4    89    1.3   221     3.2   947.4    0.00 
 126   15:10   0.14   56.3    90    1.2   213     2.2   947.3    0.01 
 126   15:20   0.13   56.8    90    0.0     0     0.0   947.3    0.00 
 126   15:30   0.15   56.8    88    0.8   236     2.2   947.3    0.00 
 126   15:40   0.16   57.3    88    0.6   272     3.1   947.3    0.00 
 126   15:50   0.10   56.6    87    1.8   251     5.6   947.3    0.00 
 126   16:00   0.12   56.3    86    1.7   249     3.7   947.2    0.00 
 126   16:10   0.12   56.2    87    3.3   241     5.3   947.2    0.00 
 126   16:20   0.13   56.1    87    1.8   246     4.3   947.2    0.00 
 126   16:30   0.19   56.6    83    2.1     3     5.0   947.2    0.00 
 126   16:40   0.17   57.1    81    1.0   344     3.5   947.2    0.00 
 126   16:50   0.13   57.1    81    1.3   270     4.6   947.2    0.00 
 126   17:00   0.11   56.8    78    0.7   330     3.2   947.2    0.00 
 126   17:10   0.28   57.3    79    1.1   359     3.1   947.0    0.00 
 126   17:20   0.33   58.7    76    2.1   252     4.3   946.9    0.00 
 126   17:30   0.10   58.9    70    0.9     7     3.3   946.9    0.00 
 126   17:40   0.07   57.8    75    1.0     2     3.1   946.8    0.00 
 126   17:50   0.04   57.2    76    0.4    18     2.5   946.8    0.00 
 126   18:00   0.02   56.4    80    0.0   286     1.2   947.0    0.00 
 126   18:10   0.01   55.8    84    0.6   228     3.0   947.2    0.00 
 126   18:20   0.01   55.5    88    1.4   216     3.1   947.3    0.00 
 126   18:30   0.01   55.2    89    0.6   219     2.0   947.3    0.00 
 126   18:40   0.01   55.0    90    1.6   240     3.1   947.4    0.00 
 126   18:50   0.00   54.9    92    0.6   222     2.0   947.5    0.00 
 126   19:00   0.00   54.6    92    1.8   226     4.7   947.5    0.00 
 126   19:10   0.00   53.4    89    2.4   221     6.5   947.5    0.01 
 126   19:20   0.00   52.9    88    1.3   209     3.1   947.5    0.00 
 126   19:30   0.00   52.7    90    1.2    58     2.6   947.7    0.00 
 126   19:40   0.00   52.5    90    0.5    99     1.4   947.9    0.00 
 126   19:50   0.00   52.5    91    0.6    67     1.8   947.9    0.00 
 126   20:00   0.00   52.4    92    0.8    74     2.6   948.0    0.00 
 126   20:10   0.00   52.4    92    0.9   220     2.0   948.0    0.00 
 126   20:20   0.00   52.5    93    0.1   253     1.0   948.1    0.00 
 126   20:30   0.00   52.5    93    0.0     0     0.0   948.1    0.00 
 126   20:40   0.00   52.3    94    0.3   222     1.6   948.2    0.01 
 126   20:50   0.00   52.2    94    0.1    79     0.8   948.2    0.00 
 126   21:00   0.00   52.0    94    0.7    78     1.2   948.3    0.00 
 126   21:10   0.00   52.0    95    0.0    62     0.2   948.3    0.00 
 126   21:20   0.00   52.0    95    0.3    82     1.2   948.3    0.00 
 126   21:30   0.00   52.0    96    0.0    67     0.6   948.2    0.00 
 126   21:40   0.00   52.0    96    0.0     0     0.0   948.2    0.00 
 126   21:50   0.00   51.7    96    1.0    87     3.0   948.1    0.00 
 126   22:00   0.00   51.5    96    0.5    75     1.9   948.1    0.00 
 126   22:10   0.00   51.2    96    1.1    77     2.6   948.0    0.00 
 126   22:20   0.00   50.9    96    0.9   102     2.2   947.8    0.00 
 126   22:30   0.00   50.5    96    1.5    53     2.6   947.7    0.00 
 126   22:40   0.00   50.4    97    0.8    74     1.8   947.7    0.00 
 126   22:50   0.00   50.1    96    1.5    84     3.2   947.7    0.00 
 126   23:00   0.00   49.9    96    1.0    85     2.6   947.8    0.00 
 126   23:10   0.00   49.6    96    0.3    55     1.8   947.8    0.00 
 126   23:20   0.00   49.5    97    0.4    52     2.3   947.8    0.00 
 126   23:30   0.00   49.7    97    0.0     0     0.0   947.9    0.00 
 126   23:40   0.00   50.1    97    0.1    19     0.6   947.9    0.00 
 126   23:50   0.00   50.0    97    1.8   242     3.5   947.9    0.00 
 127    0:00   0.00   49.8    98    0.4    61     1.5   947.8    0.00 
 127    0:10   0.00   50.0    98    0.8    47     2.3   947.7    0.00 
 127    0:20   0.00   50.1    98    0.5    74     1.6   947.7    0.00 
 127    0:30   0.00   50.3    98    0.0     0     0.0   947.7    0.00 
 127    0:40   0.00   50.3    98    0.3   230     1.2   947.8    0.00 
 127    0:50   0.00   50.3    98    0.4   224     1.2   947.7    0.00 
 127    1:00   0.00   50.4    98    0.1   250     1.3   947.6    0.00 
 127    1:10   0.00   50.4    98    0.2   257     1.1   947.5    0.00 
 127    1:20   0.00   50.4    98    0.1   261     0.9   947.5    0.00 
 127    1:30   0.00   50.4    98    0.3   247     2.2   947.3    0.00 
 127    1:40   0.00   50.5    98    0.5   249     2.2   947.2    0.00 
 127    1:50   0.00   50.5    98    0.6   279     2.0   947.2    0.00 
 127    2:00   0.00   50.8    98    0.8    19     2.3   947.2    0.00 
 127    2:10   0.00   51.0    98    0.1   253     0.7   947.2    0.00 
 127    2:20   0.00   51.0    98    0.7   248     2.1   947.2    0.00 
 127    2:30   0.00   51.0    98    1.3   239     2.4   947.2    0.00 
 127    2:40   0.00   50.7    98    2.3   245     5.8   947.2    0.00 
 127    2:50   0.00   50.6    99    0.6   316     2.9   947.3    0.00 
 127    3:00   0.00   50.5    99    1.0   254     4.7   947.2    0.00 
 127    3:10   0.00   50.5    99    1.0   251     3.8   947.2    0.00 
 127    3:20   0.00   50.5   100    0.8   244     2.7   947.1    0.00 
 127    3:30   0.00   50.5   100    1.2   248     4.1   947.2    0.01 
 127    3:40   0.00   50.4   100    1.8   261     3.7   947.2    0.00 
 127    3:50   0.00   50.1   100    2.2   246     5.0   947.2    0.00 
 127    4:00   0.00   50.1   100    1.9   250     4.6   947.2    0.00 
 127    4:10   0.00   50.1   100    1.9   245     4.1   947.1    0.00 
 127    4:20   0.00   50.1   100    1.0   265     3.8   947.2    0.00 
 127    4:30   0.00   50.2   100    1.4   240     4.7   947.2    0.00 
 127    4:40   0.00   49.9   100    2.3   241     6.7   947.3    0.00 
 127    4:50   0.00   49.6   100    2.9   244     6.7   947.3    0.00 
 127    5:00   0.00   49.5   100    2.4   255     5.8   947.4    0.00 
 127    5:10   0.00   49.5   100    2.1   257     5.4   947.7    0.00 
 127    5:20   0.00   49.5   100    1.9    19     7.3   947.8    0.00 
 127    5:30   0.00   49.5   100    0.9     4     5.1   947.9    0.01 
 127    5:40   0.00   49.4   100    1.8   247     5.6   947.9    0.00 
 127    5:50   0.00   49.3   100    2.1   243     4.7   948.0    0.00 
 127    6:00   0.00   49.4   100    1.7   243     3.6   948.1    0.00 
 127    6:10   0.00   49.4   100    2.3   243     4.7   948.2    0.00 
 127    6:20   0.02   49.3   100    1.5   254     4.9   948.2    0.00 
 127    6:30   0.02   49.3   100    1.8   245     3.2   948.2    0.00 
 127    6:40   0.02   49.4   100    0.3   259     2.0   948.2    0.00 
 127    6:50   0.04   49.6   100    0.6   228     1.7   948.2    0.00 
 127    7:00   0.07   49.9   100    0.0   311     0.7   948.3    0.00 
 127    7:10   0.07   50.5   100    0.6   217     2.0   948.3    0.00 
 127    7:20   0.08   50.4   100    0.3   229     1.3   948.2    0.00 
 127    7:30   0.08   50.7   100    0.1   120     0.9   948.2    0.00 
 127    7:40   0.12   51.3   100    0.0    39     0.4   948.2    0.00 
 127    7:50   0.19   51.7    98    0.3    89     1.3   948.1    0.00 
 127    8:00   0.28   52.9    95    0.7    71     2.3   948.1    0.00 
 127    8:10   0.16   53.4    90    0.6    45     2.3   948.1    0.00 
 127    8:20   0.18   53.1    88    1.3    65     2.9   948.0    0.00 
 127    8:30   0.37   54.9    85    0.4   142     1.9   948.0    0.00 
 127    8:40   0.26   56.4    80    1.4   236     2.9   947.9    0.00 
 127    8:50   0.26   56.3    80    0.7   258     2.6   947.9    0.00 
 127    9:00   0.37   57.4    79    0.7   228     2.4   947.8    0.00 
 127    9:10   0.49   59.3    68    0.7    69     3.1   947.8    0.00 
 127    9:20   0.45   60.8    57    0.3    94     1.6   947.8    0.00 
 127    9:30   0.57   59.9    63    2.5   224     4.7   947.8    0.00 
 127    9:40   0.64   60.0    63    1.6   348     3.7   947.7    0.00 
 127    9:50   0.69   61.5    61    2.1    45     5.7   947.6    0.00 
 127   10:00   0.48   61.4    60    1.3   293     6.8   947.6    0.00 
 127   10:10   0.50   60.3    70    3.4   252     8.6   947.6    0.00 
 127   10:20   0.47   59.4    77    3.1   258     8.3   947.7    0.00 
 127   10:30   0.48   57.4    80    4.2   254     8.7   947.8    0.00 
 127   10:40   0.45   57.5    81    3.2   248    11.8   948.0    0.00 
 127   10:50   0.57   58.0    79    3.6   244     9.4   948.0    0.00 
 127   11:00   0.35   56.8    81    3.9   251    10.4   948.1    0.00 
 127   11:10   0.33   56.1    82    4.7   246     8.8   948.1    0.00 
 127   11:20   0.28   54.8    84    4.2   249    10.9   948.1    0.00 
 127   11:30   0.17   54.0    85    3.8   251     9.2   948.3    0.00 
 127   11:40   0.07   52.8    87    4.2   254     7.7   948.3    0.00 
 127   11:50   0.07   52.3    88    3.2   245     8.8   948.3    0.00 
 127   12:00   0.07   52.3    88    2.2   255     8.0   948.4    0.00 
 127   12:10   0.04   52.6    87    2.3   245     5.6   948.4    0.00 
 127   12:20   0.04   52.2    88    3.0   250     5.4   948.5    0.00 
 127   12:30   0.06   51.9    89    3.4   240     6.6   948.6    0.00 
 127   12:40   0.08   51.8    92    2.5   253     5.1   948.5    0.01 
 127   12:50   0.08   52.1    93    2.4   258     5.7   948.5    0.00 
 127   13:00   0.09   52.2    93    2.5   250     5.0   948.4    0.00 
 127   13:10   0.11   52.3    93    1.7   260     5.3   948.4    0.00 
 127   13:20   0.08   52.9    93    2.4   248     3.9   948.5    0.00 
 127   13:30   0.08   52.6    93    1.9   241     5.7   948.5    0.00 
 127   13:40   0.11   53.1    93    1.8   240     4.1   948.4    0.00 
 127   13:50   0.19   53.7    92    2.0   242     4.1   948.3    0.00 
 127   14:00   0.33   54.5    87    2.5   243     5.5   948.2    0.01 
 127   14:10   0.31   55.4    81    1.9   250     5.0   948.2    0.00 

Return to Hastings Natural History Reservation graphs page.


Western Regional Climate Center,wrcc@dri.edu